createdAt,value
2022-10-22T00:00:14.012Z,3.65
2022-10-22T00:02:42.090Z,4.53
2022-10-22T00:05:10.194Z,3.20
2022-10-22T00:10:14.721Z,3.30
2022-10-22T00:12:41.841Z,4.10
2022-10-22T00:15:22.821Z,3.72
2022-10-22T00:17:50.483Z,3.90
2022-10-22T00:20:20.093Z,2.85
2022-10-22T00:25:26.577Z,4.03
2022-10-22T00:27:54.063Z,3.45
2022-10-22T00:30:25.173Z,3.45
2022-10-22T00:32:57.913Z,2.90
2022-10-22T00:35:26.029Z,4.10
2022-10-22T00:37:59.661Z,3.45
2022-10-22T00:40:34.795Z,3.15
2022-10-22T00:43:06.030Z,4.32
2022-10-22T00:45:33.476Z,5.20
2022-10-22T00:48:06.375Z,3.13
2022-10-22T00:50:47.495Z,3.75
2022-10-22T00:53:26.665Z,2.75
2022-10-22T00:55:55.517Z,2.50
2022-10-22T00:58:28.549Z,2.45
2022-10-22T01:00:57.349Z,3.03
2022-10-22T01:03:30.039Z,2.60
2022-10-22T01:06:04.018Z,2.20
2022-10-22T01:08:40.254Z,2.00
2022-10-22T01:11:24.101Z,2.00
2022-10-22T01:14:08.269Z,2.22
2022-10-22T01:16:57.185Z,2.88
2022-10-22T01:19:55.296Z,2.63
2022-10-22T01:22:44.651Z,2.55
2022-10-22T01:25:46.339Z,2.83
2022-10-22T01:28:39.215Z,3.22
2022-10-22T01:31:08.323Z,3.85
2022-10-22T01:33:40.727Z,4.80
2022-10-22T01:36:08.924Z,3.58
2022-10-22T01:38:37.767Z,4.40
2022-10-22T01:41:06.447Z,5.18
2022-10-22T01:43:33.977Z,5.07
2022-10-22T01:46:08.490Z,7.75
2022-10-22T01:49:14.560Z,9.65
2022-10-22T01:52:19.821Z,10.48
2022-10-22T01:55:15.418Z,9.63
2022-10-22T01:57:48.366Z,7.25
2022-10-22T02:00:22.609Z,6.53
2022-10-22T02:02:58.459Z,5.28
2022-10-22T02:05:59.863Z,3.30
2022-10-22T02:08:33.511Z,3.28
2022-10-22T02:11:03.585Z,3.10
2022-10-22T02:13:42.636Z,2.72
2022-10-22T02:16:18.609Z,3.47
2022-10-22T02:18:47.844Z,2.90
2022-10-22T02:21:18.212Z,3.15
2022-10-22T02:23:52.282Z,4.05
2022-10-22T02:26:33.369Z,3.35
2022-10-22T02:29:20.810Z,2.97
2022-10-22T02:31:54.177Z,3.25
2022-10-22T02:34:24.669Z,2.63
2022-10-22T02:36:53.320Z,2.30
2022-10-22T02:39:22.168Z,2.40
2022-10-22T02:41:56.777Z,2.80
2022-10-22T02:44:24.742Z,3.58
2022-10-22T02:46:56.477Z,2.80
2022-10-22T02:49:28.763Z,3.75
2022-10-22T02:54:23.586Z,3.20
2022-10-22T02:56:56.556Z,2.75
2022-10-22T02:59:25.513Z,2.85
2022-10-22T03:01:57.682Z,3.58
2022-10-22T03:04:25.046Z,2.90
2022-10-22T03:06:52.580Z,2.90
2022-10-22T03:09:24.970Z,2.38
2022-10-22T03:11:52.837Z,3.00
2022-10-22T03:14:20.152Z,3.33
2022-10-22T03:16:47.810Z,2.50
2022-10-22T03:19:15.677Z,3.05
2022-10-22T03:21:50.807Z,2.30
2022-10-22T03:27:12.912Z,2.20
2022-10-22T03:29:47.692Z,2.80
2022-10-22T03:32:15.344Z,2.03
2022-10-22T03:34:45.778Z,2.63
2022-10-22T03:37:17.328Z,3.33
2022-10-22T03:39:51.083Z,2.72
2022-10-22T03:42:22.271Z,2.78
2022-10-22T03:44:52.608Z,2.97
2022-10-22T03:47:20.180Z,2.58
2022-10-22T03:50:10.479Z,2.05
2022-10-22T03:52:39.568Z,3.28
2022-10-22T03:55:16.771Z,3.15
2022-10-22T03:57:44.279Z,3.08
2022-10-22T04:00:12.031Z,3.40
2022-10-22T04:02:42.825Z,3.35
2022-10-22T04:05:10.335Z,3.45
2022-10-22T04:07:38.018Z,3.03
2022-10-22T04:10:05.909Z,2.80
2022-10-22T04:12:34.000Z,2.67
2022-10-22T04:15:01.335Z,3.58
2022-10-22T04:17:38.407Z,3.58
2022-10-22T04:20:07.047Z,3.65
2022-10-22T04:22:37.818Z,2.90
2022-10-22T04:25:06.635Z,3.22
2022-10-22T04:27:37.300Z,2.90
2022-10-22T04:30:06.808Z,2.90
2022-10-22T04:32:34.575Z,2.85
2022-10-22T04:35:02.108Z,3.47
2022-10-22T04:37:30.535Z,3.25
2022-10-22T04:40:00.119Z,3.10
2022-10-22T04:42:28.716Z,2.58
2022-10-22T04:44:56.066Z,3.47
2022-10-22T04:47:24.487Z,3.08
2022-10-22T04:49:53.971Z,2.80
2022-10-22T04:52:21.501Z,3.10
2022-10-22T04:54:50.401Z,3.40
2022-10-22T04:57:18.111Z,2.67
2022-10-22T04:59:45.607Z,2.47
2022-10-22T05:02:12.817Z,3.97
2022-10-22T05:04:52.613Z,2.00
2022-10-22T05:07:20.234Z,3.80
2022-10-22T05:09:47.483Z,4.95
2022-10-22T05:12:14.610Z,3.78
2022-10-22T05:14:44.936Z,3.20
2022-10-22T05:17:25.374Z,3.28
2022-10-22T05:20:06.017Z,3.72
2022-10-22T05:22:35.511Z,4.15
2022-10-22T05:25:03.087Z,3.38
2022-10-22T05:27:33.434Z,4.28
2022-10-22T05:30:05.251Z,3.75
2022-10-22T05:32:35.080Z,4.15
2022-10-22T05:35:02.285Z,3.92
2022-10-22T05:37:39.048Z,4.90
2022-10-22T05:40:26.401Z,4.68
2022-10-22T05:43:00.778Z,5.53
2022-10-22T05:45:44.383Z,6.68
2022-10-22T05:48:14.430Z,5.38
2022-10-22T05:50:54.081Z,4.95
2022-10-22T05:53:22.770Z,6.00
2022-10-22T05:55:54.092Z,4.47
2022-10-22T05:59:00.292Z,4.78
2022-10-22T06:01:43.192Z,5.28
2022-10-22T06:04:30.322Z,6.45
2022-10-22T06:10:00.722Z,4.90
2022-10-22T06:12:41.954Z,5.68
2022-10-22T06:15:43.900Z,5.70
2022-10-22T06:18:21.262Z,6.05
2022-10-22T06:20:55.034Z,6.03
2022-10-22T06:23:47.439Z,6.20
2022-10-22T06:26:30.763Z,3.08
2022-10-22T06:29:30.017Z,3.15
2022-10-22T06:36:08.281Z,4.63
2022-10-22T06:39:11.057Z,3.78
2022-10-22T06:44:51.696Z,3.30
2022-10-22T06:47:31.676Z,2.90
2022-10-22T06:53:35.307Z,3.85
2022-10-22T06:56:13.898Z,3.17
2022-10-22T06:58:49.038Z,3.65
2022-10-22T07:01:30.399Z,3.25
2022-10-22T07:04:06.423Z,4.32
2022-10-22T07:06:41.433Z,3.63
2022-10-22T07:09:42.805Z,2.95
2022-10-22T07:19:48.440Z,3.42
2022-10-22T07:22:39.085Z,3.08
2022-10-22T07:25:59.109Z,2.92
2022-10-22T07:39:00.008Z,3.42
2022-10-22T07:41:45.430Z,3.42
2022-10-22T07:57:53.766Z,2.90
2022-10-22T08:01:55.940Z,2.28
2022-10-22T08:04:42.459Z,1.95
2022-10-22T09:18:52.341Z,2.65
2022-10-22T09:35:48.484Z,3.13
2022-10-22T09:42:24.754Z,3.03
2022-10-22T09:49:32.267Z,3.20
2022-10-22T09:53:43.549Z,3.35
2022-10-22T10:00:40.725Z,2.50
2022-10-22T10:04:28.641Z,2.22
2022-10-22T10:10:10.302Z,3.70
2022-10-22T10:12:48.200Z,2.95
2022-10-22T10:15:48.902Z,2.22
2022-10-22T10:18:30.126Z,2.55
2022-10-22T10:21:33.032Z,3.00
2022-10-22T10:24:32.872Z,3.38
2022-10-22T10:27:14.744Z,3.40
2022-10-22T10:30:01.585Z,2.78
2022-10-22T10:33:24.077Z,3.17
2022-10-22T10:36:07.302Z,3.58
2022-10-22T10:38:58.451Z,3.08
2022-10-22T10:41:33.408Z,2.72
2022-10-22T10:44:18.204Z,3.30
2022-10-22T10:47:44.599Z,4.25
2022-10-22T10:51:00.443Z,3.13
2022-10-22T10:54:03.433Z,3.17
2022-10-22T10:56:57.523Z,3.72
2022-10-22T10:59:55.499Z,4.90
2022-10-22T11:03:24.352Z,3.60
2022-10-22T11:06:21.677Z,4.07
2022-10-22T11:09:23.554Z,3.00
2022-10-22T11:12:19.806Z,4.28
2022-10-22T11:15:35.216Z,4.63
2022-10-22T11:18:39.460Z,3.67
2022-10-22T11:21:22.880Z,3.13
2022-10-22T11:27:16.862Z,5.82
2022-10-22T11:29:59.340Z,4.13
2022-10-22T11:32:43.074Z,3.55
2022-10-22T11:35:27.429Z,3.25
2022-10-22T11:39:27.906Z,5.22
2022-10-22T11:41:32.979Z,5.03
2022-10-22T11:44:59.280Z,4.30
2022-10-22T11:47:35.750Z,3.28
2022-10-22T11:50:50.856Z,3.97
2022-10-22T11:53:55.758Z,3.95
2022-10-22T11:56:38.843Z,4.00
2022-10-22T11:59:33.717Z,3.35
2022-10-22T12:04:43.529Z,4.32
2022-10-22T12:07:31.780Z,3.95
2022-10-22T12:09:59.458Z,3.08
2022-10-22T12:12:29.793Z,3.17
2022-10-22T12:15:01.329Z,3.28
2022-10-22T12:20:21.116Z,4.00
2022-10-22T12:22:57.569Z,3.75
2022-10-22T12:25:35.496Z,4.28
2022-10-22T12:28:05.719Z,5.45
2022-10-22T12:30:37.468Z,3.38
2022-10-22T12:33:21.578Z,2.85
2022-10-22T12:35:58.071Z,3.95
2022-10-22T12:42:08.830Z,3.25
2022-10-22T12:48:21.370Z,3.72
2022-10-22T12:51:17.089Z,3.33
2022-10-22T12:54:20.447Z,3.53
2022-10-22T12:59:35.614Z,5.22
2022-10-22T13:08:22.049Z,3.88
2022-10-22T13:10:57.914Z,4.13
2022-10-22T13:13:45.961Z,4.38
2022-10-22T13:19:04.675Z,5.20
2022-10-22T13:21:39.486Z,5.38
2022-10-22T13:24:39.154Z,4.82
2022-10-22T13:27:12.585Z,4.40
2022-10-22T13:29:44.524Z,5.38
2022-10-22T13:32:35.289Z,5.30
2022-10-22T13:35:32.520Z,4.28
2022-10-22T13:38:23.439Z,4.47
2022-10-22T13:41:00.887Z,5.55
2022-10-22T13:43:29.046Z,5.05
2022-10-22T13:46:05.589Z,4.65
2022-10-22T13:48:33.177Z,4.95
2022-10-22T13:51:14.970Z,5.72
2022-10-22T13:53:51.621Z,5.30
2022-10-22T13:56:51.955Z,6.32
2022-10-22T13:59:25.578Z,7.32
2022-10-22T14:02:00.394Z,6.00
2022-10-22T14:04:37.144Z,6.30
2022-10-22T14:07:05.445Z,7.55
2022-10-22T14:09:37.403Z,7.80
2022-10-22T14:12:15.356Z,6.13
2022-10-22T14:17:25.345Z,5.47
2022-10-22T14:19:56.036Z,5.00
2022-10-22T14:22:29.032Z,4.97
2022-10-22T14:24:57.437Z,5.28
2022-10-22T14:27:31.422Z,5.10
2022-10-22T14:30:02.533Z,4.30
2022-10-22T14:35:00.317Z,4.75
2022-10-22T14:37:30.630Z,4.80
2022-10-22T14:40:02.952Z,3.90
2022-10-22T14:42:31.608Z,4.22
2022-10-22T14:45:01.091Z,3.42
2022-10-22T14:47:38.883Z,4.47
2022-10-22T14:50:13.417Z,4.38
2022-10-22T14:52:48.325Z,4.25
2022-10-22T14:55:20.532Z,3.83
2022-10-22T14:57:48.085Z,3.78
2022-10-22T15:00:18.001Z,5.88
2022-10-22T15:02:47.013Z,6.88
2022-10-22T15:05:18.050Z,8.25
2022-10-22T15:07:49.261Z,7.25
2022-10-22T15:10:16.898Z,8.32
2022-10-22T15:12:50.294Z,6.40
2022-10-22T15:15:25.582Z,7.53
2022-10-22T15:17:57.855Z,7.30
2022-10-22T15:20:36.073Z,8.82
2022-10-22T15:23:06.575Z,7.75
2022-10-22T15:25:34.178Z,9.35
2022-10-22T15:28:09.343Z,7.13
2022-10-22T15:30:37.751Z,12.27
2022-10-22T15:33:06.053Z,11.05
2022-10-22T15:35:43.471Z,10.82
2022-10-22T15:38:14.851Z,16.60
2022-10-22T15:40:41.906Z,15.70
2022-10-22T15:43:09.288Z,14.07
2022-10-22T15:45:38.367Z,14.57
2022-10-22T15:48:15.360Z,12.63
2022-10-22T15:50:59.892Z,11.45
2022-10-22T15:53:32.385Z,10.25
2022-10-22T15:56:10.104Z,15.85
2022-10-22T15:58:40.544Z,17.50
2022-10-22T16:01:13.770Z,18.88
2022-10-22T16:03:43.553Z,23.33
2022-10-22T16:06:11.187Z,23.52
2022-10-22T16:08:39.797Z,23.45
2022-10-22T16:11:07.305Z,20.92
2022-10-22T16:13:37.264Z,19.75
2022-10-22T16:16:13.847Z,22.23
2022-10-22T16:18:41.673Z,18.08
2022-10-22T16:21:14.767Z,13.93
2022-10-22T16:23:44.630Z,14.98
2022-10-22T16:26:16.110Z,14.18
2022-10-22T16:28:44.010Z,16.23
2022-10-22T16:31:16.434Z,15.63
2022-10-22T16:33:50.002Z,15.30
2022-10-22T16:36:19.934Z,14.57
2022-10-22T16:38:48.541Z,13.75
2022-10-22T16:41:19.671Z,15.00
2022-10-22T16:43:54.680Z,15.55
2022-10-22T16:46:25.359Z,14.32
2022-10-22T16:48:53.590Z,14.00
2022-10-22T16:51:23.809Z,15.43
2022-10-22T16:53:55.694Z,14.35
2022-10-22T16:59:03.165Z,14.30
2022-10-22T17:01:36.747Z,14.50
2022-10-22T17:04:07.141Z,14.65
2022-10-22T17:06:34.660Z,14.80
2022-10-22T17:09:05.556Z,15.98
2022-10-22T17:11:36.404Z,14.52
2022-10-22T17:14:10.626Z,13.65
2022-10-22T17:16:38.022Z,11.20
2022-10-22T17:19:05.415Z,16.65
2022-10-22T17:21:34.116Z,14.85
2022-10-22T17:24:04.785Z,17.02
2022-10-22T17:26:34.797Z,16.67
2022-10-22T17:29:02.060Z,14.48
2022-10-22T17:31:39.284Z,15.75
2022-10-22T17:34:15.109Z,17.17
2022-10-22T17:36:46.101Z,13.15
2022-10-22T17:39:17.899Z,16.92
2022-10-22T17:44:18.158Z,13.43
2022-10-22T17:46:49.798Z,15.75
2022-10-22T17:49:19.923Z,15.55
2022-10-22T17:51:50.216Z,16.92
2022-10-22T17:54:20.632Z,16.67
2022-10-22T17:56:48.905Z,14.68
2022-10-22T17:59:20.127Z,16.05
2022-10-22T18:01:50.960Z,14.77
2022-10-22T18:04:20.398Z,10.98
2022-10-22T18:06:49.314Z,13.88
2022-10-22T18:09:22.708Z,21.85
2022-10-22T18:11:58.711Z,23.92
2022-10-22T18:14:26.345Z,20.77
2022-10-22T18:16:56.470Z,15.32
2022-10-22T18:19:24.748Z,25.58
2022-10-22T18:21:52.314Z,24.38
2022-10-22T18:24:24.215Z,22.40
2022-10-22T18:26:53.386Z,16.92
2022-10-22T18:29:21.147Z,14.73
2022-10-22T18:31:49.370Z,12.25
2022-10-22T18:34:20.225Z,12.75
2022-10-22T18:36:50.435Z,13.40
2022-10-22T18:39:20.342Z,11.98
2022-10-22T18:41:50.960Z,10.15
2022-10-22T18:44:18.358Z,12.18
2022-10-22T18:46:49.646Z,13.43
2022-10-22T18:49:19.422Z,12.18
2022-10-22T18:51:52.690Z,14.30
2022-10-22T18:54:24.390Z,11.25
2022-10-22T18:56:53.343Z,13.55
2022-10-22T18:59:27.600Z,14.85
2022-10-22T19:01:57.802Z,16.15
2022-10-22T19:04:27.643Z,17.63
2022-10-22T19:07:00.940Z,12.80
2022-10-22T19:09:29.019Z,11.80
2022-10-22T19:12:01.321Z,17.17
2022-10-22T19:17:21.476Z,19.40
2022-10-22T19:19:52.089Z,19.25
2022-10-22T19:22:20.989Z,18.30
2022-10-22T19:24:54.610Z,20.83
2022-10-22T19:27:21.893Z,17.70
2022-10-22T19:29:59.486Z,21.63
2022-10-22T19:32:30.157Z,20.55
2022-10-22T19:35:00.876Z,21.38
2022-10-22T19:37:31.512Z,22.15
2022-10-22T19:39:58.879Z,19.63
2022-10-22T19:42:29.526Z,19.83
2022-10-22T19:45:00.077Z,16.35
2022-10-22T19:47:31.073Z,17.40
2022-10-22T19:50:21.187Z,12.32
2022-10-22T19:52:52.189Z,16.90
2022-10-22T19:55:22.338Z,17.35
2022-10-22T19:57:50.223Z,17.00
2022-10-22T20:00:19.300Z,11.82
2022-10-22T20:02:46.616Z,14.48
2022-10-22T20:05:13.952Z,14.50
2022-10-22T20:07:41.597Z,12.98
2022-10-22T20:10:12.122Z,13.40
2022-10-22T20:12:40.063Z,13.55
2022-10-22T20:15:09.450Z,13.23
2022-10-22T20:17:40.287Z,9.90
2022-10-22T20:20:14.078Z,15.27
2022-10-22T20:22:43.360Z,12.35
2022-10-22T20:25:14.139Z,14.80
2022-10-22T20:27:46.582Z,13.50
2022-10-22T20:32:49.972Z,10.38
2022-10-22T20:35:17.772Z,13.05
2022-10-22T20:37:45.058Z,12.85
2022-10-22T20:40:18.858Z,10.68
2022-10-22T20:42:53.656Z,12.00
2022-10-22T20:45:20.893Z,11.80
2022-10-22T20:47:52.008Z,10.45
2022-10-22T20:50:35.999Z,10.32
2022-10-22T20:53:03.417Z,9.93
2022-10-22T20:55:40.715Z,10.93
2022-10-22T20:58:07.938Z,8.98
2022-10-22T21:00:36.473Z,8.32
2022-10-22T21:03:09.600Z,9.55
2022-10-22T21:05:39.374Z,9.75
2022-10-22T21:08:06.671Z,10.85
2022-10-22T21:10:36.642Z,9.32
2022-10-22T21:13:04.400Z,10.70
2022-10-22T21:15:39.305Z,9.43
2022-10-22T21:18:06.813Z,9.35
2022-10-22T21:20:34.277Z,11.25
2022-10-22T21:23:02.486Z,10.15
2022-10-22T21:25:30.458Z,10.10
2022-10-22T21:27:58.244Z,10.85
2022-10-22T21:30:25.526Z,11.40
2022-10-22T21:33:04.954Z,9.57
2022-10-22T21:35:36.185Z,9.00
2022-10-22T21:38:05.229Z,9.73
2022-10-22T21:40:43.701Z,10.07
2022-10-22T21:43:11.024Z,11.25
2022-10-22T21:45:41.264Z,11.65
2022-10-22T21:48:13.631Z,10.80
2022-10-22T21:50:50.934Z,10.25
2022-10-22T21:53:18.319Z,11.23
2022-10-22T21:55:45.923Z,10.65
2022-10-22T21:58:13.210Z,9.63
2022-10-22T22:00:40.773Z,10.48
2022-10-22T22:03:08.136Z,10.38
2022-10-22T22:05:35.562Z,11.27
2022-10-22T22:08:02.845Z,11.43
2022-10-22T22:10:32.792Z,9.80
2022-10-22T22:13:09.382Z,10.07
2022-10-22T22:15:37.055Z,10.35
2022-10-22T22:18:04.653Z,8.70
2022-10-22T22:20:37.402Z,8.15
2022-10-22T22:23:10.882Z,7.72
2022-10-22T22:25:41.112Z,8.73
2022-10-22T22:28:16.626Z,9.85
2022-10-22T22:30:44.803Z,8.70
2022-10-22T22:33:13.123Z,8.63
2022-10-22T22:35:40.865Z,7.53
2022-10-22T22:38:15.547Z,8.40
2022-10-22T22:40:45.292Z,6.57
2022-10-22T22:43:12.483Z,7.55
2022-10-22T22:45:43.588Z,7.60
2022-10-22T22:48:11.189Z,7.68
2022-10-22T22:50:39.097Z,8.50
2022-10-22T22:53:24.558Z,9.75
2022-10-22T22:55:52.294Z,8.60
2022-10-22T22:58:19.558Z,8.43
2022-10-22T23:00:49.878Z,8.10
2022-10-22T23:03:17.283Z,8.70
2022-10-22T23:05:45.048Z,7.15
2022-10-22T23:08:12.345Z,9.50
2022-10-22T23:10:45.407Z,7.68
2022-10-22T23:13:12.995Z,8.70
2022-10-22T23:15:45.948Z,7.95
2022-10-22T23:18:16.762Z,9.38
2022-10-22T23:20:43.832Z,8.80
2022-10-22T23:23:11.194Z,7.13
2022-10-22T23:25:39.765Z,9.55
2022-10-22T23:28:09.774Z,14.40
2022-10-22T23:30:43.274Z,11.40
2022-10-22T23:33:12.861Z,39.38
2022-10-22T23:35:43.922Z,15.23
2022-10-22T23:38:18.410Z,9.60
2022-10-22T23:40:56.616Z,7.30
2022-10-22T23:43:27.617Z,8.68
2022-10-22T23:45:57.859Z,8.55
2022-10-22T23:48:25.868Z,8.98
2022-10-22T23:53:25.924Z,9.35
2022-10-22T23:56:03.623Z,8.65
2022-10-22T23:58:31.236Z,8.18
